Time;durP1;ratioP1;P1;durP2;ratioP2;P2;SDS_P1;SDS_P2;PMS_P1;PMS_P2;Temp;Humidity;BMP_temperature;BMP_pressure;BME280_temperature;BME280_humidity;BME280_pressure;Samples;Min_cycle;Max_cycle;Signal;HPM_P1;HPM_P2
2022/09/18 00:00:38;;;;;;;1.53;0.57;;;;;;;;;;5092011;28;20119;-77
2022/09/18 00:03:03;;;;;;;1.20;0.60;;;;;;;;;;5091939;28;20245;-77
2022/09/18 00:05:29;;;;;;;2.28;0.80;;;;;;;;;;5093122;28;20046;-77
2022/09/18 00:07:54;;;;;;;3.10;0.80;;;;;;;;;;5093717;28;20529;-77
2022/09/18 00:10:19;;;;;;;1.33;0.67;;;;;;;;;;5091944;28;20364;-77
2022/09/18 00:12:44;;;;;;;1.15;0.73;;;;;;;;;;5093026;28;20284;-77
2022/09/18 00:15:09;;;;;;;5.28;0.98;;;;;;;;;;5093186;28;20413;-77
2022/09/18 00:17:35;;;;;;;2.03;0.70;;;;;;;;;;5092899;28;20055;-77
2022/09/18 00:20:00;;;;;;;2.43;0.90;;;;;;;;;;5093288;28;20335;-78
2022/09/18 00:22:25;;;;;;;2.25;0.80;;;;;;;;;;5093405;28;20252;-77
2022/09/18 00:24:50;;;;;;;2.00;0.80;;;;;;;;;;5091625;28;20465;-76
2022/09/18 00:27:16;;;;;;;0.70;0.60;;;;;;;;;;5093310;28;20722;-76
2022/09/18 00:29:41;;;;;;;2.78;0.75;;;;;;;;;;5091594;28;20825;-77
2022/09/18 00:32:06;;;;;;;2.07;0.70;;;;;;;;;;5092834;28;20024;-76
2022/09/18 00:34:31;;;;;;;2.97;0.90;;;;;;;;;;5092843;28;20241;-77
2022/09/18 00:36:56;;;;;;;3.17;0.80;;;;;;;;;;5092797;28;20249;-77
2022/09/18 00:39:22;;;;;;;2.23;0.70;;;;;;;;;;5091833;28;20260;-76
2022/09/18 00:41:47;;;;;;;1.67;0.80;;;;;;;;;;5092753;28;20303;-77
2022/09/18 00:44:33;;;;;;;0.82;0.60;;;;;;;;;;5092457;28;20032;-77
2022/09/18 00:47:10;;;;;;;4.10;0.80;;;;;;;;;;5091534;28;20028;-77
2022/09/18 00:49:38;;;;;;;2.65;0.90;;;;;;;;;;5091371;28;20402;-77
2022/09/18 00:52:04;;;;;;;2.42;1.20;;;;;;;;;;5092679;28;20032;-76
2022/09/18 00:54:36;;;;;;;1.95;0.80;;;;;;;;;;5092961;28;20119;-77
2022/09/18 00:57:07;;;;;;;2.53;1.17;;;;;;;;;;5092563;28;20070;-76
2022/09/18 00:59:34;;;;;;;2.47;1.20;;;;;;;;;;5092840;28;20024;-76
2022/09/18 01:02:00;;;;;;;4.63;1.45;;;;;;;;;;5093701;28;20518;-76
2022/09/18 01:04:26;;;;;;;3.22;1.20;;;;;;;;;;5092741;28;20031;-77
2022/09/18 01:07:12;;;;;;;2.63;1.35;;;;;;;;;;5091165;28;20024;-76
2022/09/18 01:09:48;;;;;;;2.55;1.20;;;;;;;;;;5094951;28;20393;-77
2022/09/18 01:12:36;;;;;;;4.25;1.75;;;;;;;;;;5096571;28;20378;-77
2022/09/18 01:15:36;;;;;;;2.45;1.10;;;;;;;;;;5096514;28;20024;-77
2022/09/18 01:18:37;;;;;;;2.88;1.27;;;;;;;;;;5094971;28;20031;-77
2022/09/18 01:21:18;;;;;;;3.25;1.40;;;;;;;;;;5096694;28;20020;-77
2022/09/18 01:24:17;;;;;;;4.00;1.50;;;;;;;;;;5096048;28;20098;-78
2022/09/18 01:26:53;;;;;;;4.05;1.20;;;;;;;;;;5094975;28;20031;-78
2022/09/18 01:29:27;;;;;;;2.72;1.35;;;;;;;;;;5094863;28;20024;-78
2022/09/18 01:31:59;;;;;;;3.95;1.55;;;;;;;;;;5094762;28;20038;-77
2022/09/18 01:34:43;;;;;;;4.00;1.27;;;;;;;;;;5096565;28;20030;-77
2022/09/18 01:37:54;;;;;;;3.70;1.33;;;;;;;;;;5096384;28;20031;-77
2022/09/18 01:40:32;;;;;;;5.10;1.23;;;;;;;;;;5073270;28;20024;-77
2022/09/18 01:43:00;;;;;;;3.20;0.98;;;;;;;;;;5095666;28;20032;-77
2022/09/18 01:45:32;;;;;;;3.53;1.40;;;;;;;;;;5095880;28;20098;-77
2022/09/18 01:48:06;;;;;;;3.28;0.90;;;;;;;;;;5094749;28;20028;-77
2022/09/18 01:50:34;;;;;;;3.73;1.10;;;;;;;;;;5095626;28;20035;-77
2022/09/18 01:53:06;;;;;;;3.97;1.10;;;;;;;;;;5094452;28;20271;-77
2022/09/18 01:55:33;;;;;;;3.92;1.10;;;;;;;;;;5094648;28;20103;-77
2022/09/18 01:58:06;;;;;;;4.13;1.00;;;;;;;;;;5095635;28;20040;-77
2022/09/18 02:00:33;;;;;;;1.73;0.88;;;;;;;;;;5094994;28;20027;-77
2022/09/18 02:03:04;;;;;;;2.50;0.90;;;;;;;;;;5094532;28;20038;-77
2022/09/18 02:05:35;;;;;;;2.50;0.85;;;;;;;;;;5094849;28;20046;-78
2022/09/18 02:08:02;;;;;;;4.40;1.00;;;;;;;;;;5096301;28;20161;-78
2022/09/18 02:10:31;;;;;;;1.85;0.90;;;;;;;;;;5094900;28;20062;-77
2022/09/18 02:12:58;;;;;;;3.67;1.00;;;;;;;;;;5094713;28;20426;-77
2022/09/18 02:15:27;;;;;;;3.35;0.85;;;;;;;;;;5096062;28;20107;-77
2022/09/18 02:17:57;;;;;;;3.75;0.80;;;;;;;;;;5096051;28;20051;-77
2022/09/18 02:20:27;;;;;;;10.40;1.38;;;;;;;;;;5094877;28;20062;-78
2022/09/18 02:22:56;;;;;;;4.80;0.93;;;;;;;;;;5095979;28;20028;-77
2022/09/18 02:25:29;;;;;;;1.10;0.80;;;;;;;;;;5095824;28;20020;-77
2022/09/18 02:27:56;;;;;;;4.00;1.00;;;;;;;;;;5096048;28;20024;-77
2022/09/18 02:30:22;;;;;;;3.38;0.85;;;;;;;;;;5095911;28;20178;-77
2022/09/18 02:32:52;;;;;;;1.15;0.85;;;;;;;;;;5094988;28;20480;-77
2022/09/18 02:35:17;;;;;;;3.45;1.20;;;;;;;;;;5094452;28;20047;-77
2022/09/18 02:37:52;;;;;;;1.50;1.00;;;;;;;;;;5094443;28;20020;-77
2022/09/18 02:40:37;;;;;;;3.03;1.00;;;;;;;;;;5096221;28;20020;-77
2022/09/18 02:43:13;;;;;;;4.22;1.10;;;;;;;;;;5095300;28;20040;-77
2022/09/18 02:45:57;;;;;;;1.25;0.90;;;;;;;;;;5095470;28;20078;-77
2022/09/18 02:48:55;;;;;;;1.52;0.80;;;;;;;;;;5095859;28;20020;-77
2022/09/18 02:51:38;;;;;;;2.03;0.93;;;;;;;;;;5094063;28;20020;-77
2022/09/18 02:54:10;;;;;;;5.20;0.98;;;;;;;;;;5095913;28;20053;-77
2022/09/18 02:56:43;;;;;;;3.67;0.90;;;;;;;;;;5095236;28;20031;-77
2022/09/18 02:59:18;;;;;;;2.92;1.00;;;;;;;;;;5095008;28;20062;-78
2022/09/18 03:01:44;;;;;;;3.60;0.93;;;;;;;;;;5095375;28;20033;-77
2022/09/18 03:04:12;;;;;;;3.92;1.10;;;;;;;;;;5095372;28;20099;-77
2022/09/18 03:06:37;;;;;;;2.83;1.25;;;;;;;;;;5093817;28;20034;-77
2022/09/18 03:09:03;;;;;;;6.80;1.25;;;;;;;;;;5094927;28;20024;-78
2022/09/18 03:11:28;;;;;;;6.55;1.63;;;;;;;;;;5093962;28;20542;-77
2022/09/18 03:13:53;;;;;;;4.50;1.42;;;;;;;;;;5095171;28;20028;-78
2022/09/18 03:16:19;;;;;;;5.00;1.60;;;;;;;;;;5094675;28;20032;-77
2022/09/18 03:18:44;;;;;;;15.18;1.95;;;;;;;;;;5094708;28;20264;-78
2022/09/18 03:21:09;;;;;;;8.93;1.70;;;;;;;;;;5094677;28;20138;-79
2022/09/18 03:23:34;;;;;;;14.70;1.80;;;;;;;;;;5094710;28;20028;-77
2022/09/18 03:25:59;;;;;;;10.17;2.10;;;;;;;;;;5093873;28;20268;-77
2022/09/18 03:28:25;;;;;;;9.83;1.73;;;;;;;;;;5094744;28;20260;-78
2022/09/18 03:30:50;;;;;;;8.53;2.07;;;;;;;;;;5094309;28;20260;-77
2022/09/18 03:33:15;;;;;;;7.00;1.73;;;;;;;;;;5094900;28;20260;-77
2022/09/18 03:35:44;;;;;;;7.57;1.88;;;;;;;;;;5093474;28;20248;-77
2022/09/18 03:38:09;;;;;;;12.27;2.50;;;;;;;;;;5093831;28;20073;-77
2022/09/18 03:40:34;;;;;;;6.38;1.67;;;;;;;;;;5094400;28;20028;-78
2022/09/18 03:42:59;;;;;;;7.32;1.77;;;;;;;;;;5093674;28;20393;-77
2022/09/18 03:45:25;;;;;;;5.88;1.98;;;;;;;;;;5092531;28;20110;-77
2022/09/18 03:47:50;;;;;;;11.40;2.25;;;;;;;;;;5093798;28;20016;-77
2022/09/18 03:50:15;;;;;;;5.57;2.38;;;;;;;;;;5093811;28;20047;-77
2022/09/18 03:52:41;;;;;;;6.45;1.98;;;;;;;;;;5094298;28;20028;-77
2022/09/18 03:55:07;;;;;;;8.70;1.95;;;;;;;;;;5094228;28;20042;-77
2022/09/18 03:57:32;;;;;;;10.32;2.20;;;;;;;;;;5092622;28;20016;-77
2022/09/18 03:59:57;;;;;;;7.38;2.20;;;;;;;;;;5094431;28;20098;-77
2022/09/18 04:02:22;;;;;;;9.25;1.75;;;;;;;;;;5094016;28;20077;-77
2022/09/18 04:04:48;;;;;;;8.00;1.77;;;;;;;;;;5093921;28;20482;-77
2022/09/18 04:07:13;;;;;;;6.38;1.88;;;;;;;;;;5093934;28;20595;-77
2022/09/18 04:09:38;;;;;;;5.45;1.58;;;;;;;;;;5092110;28;20024;-78
2022/09/18 04:12:04;;;;;;;8.43;1.70;;;;;;;;;;5092042;28;20053;-77
2022/09/18 04:14:29;;;;;;;11.15;2.05;;;;;;;;;;5091750;28;20052;-77
2022/09/18 04:16:55;;;;;;;9.63;1.50;;;;;;;;;;5093016;28;20389;-76
2022/09/18 04:19:20;;;;;;;10.07;1.43;;;;;;;;;;5091713;28;20028;-77
2022/09/18 04:21:45;;;;;;;6.60;1.60;;;;;;;;;;5093492;28;20804;-77
2022/09/18 04:24:10;;;;;;;5.68;1.25;;;;;;;;;;5093169;28;20772;-77
2022/09/18 04:26:36;;;;;;;8.80;1.50;;;;;;;;;;5092997;28;20401;-77
2022/09/18 04:29:02;;;;;;;4.90;1.15;;;;;;;;;;5093083;28;20257;-76
2022/09/18 04:31:27;;;;;;;3.28;1.30;;;;;;;;;;5091592;28;20055;-76
2022/09/18 04:33:52;;;;;;;4.90;1.33;;;;;;;;;;5092893;28;20023;-76
2022/09/18 04:36:18;;;;;;;10.57;1.65;;;;;;;;;;5093370;28;20267;-76
2022/09/18 04:38:43;;;;;;;7.82;1.65;;;;;;;;;;5091436;28;20057;-76
2022/09/18 04:41:08;;;;;;;13.37;1.70;;;;;;;;;;5093117;28;20031;-77
2022/09/18 04:43:33;;;;;;;5.53;1.10;;;;;;;;;;5094950;28;20273;-77
2022/09/18 04:45:59;;;;;;;7.03;1.27;;;;;;;;;;5096899;28;20385;-77
2022/09/18 04:48:24;;;;;;;6.50;1.17;;;;;;;;;;5095436;28;20056;-77
2022/09/18 04:50:50;;;;;;;10.32;1.60;;;;;;;;;;5095693;28;20508;-78
2022/09/18 04:53:15;;;;;;;6.70;1.20;;;;;;;;;;5096978;28;20024;-77
2022/09/18 04:55:44;;;;;;;7.18;1.40;;;;;;;;;;5096486;28;20074;-77
2022/09/18 04:58:11;;;;;;;12.07;1.50;;;;;;;;;;5096397;28;20511;-77
2022/09/18 05:00:37;;;;;;;7.13;1.20;;;;;;;;;;5095149;28;20028;-77
2022/09/18 05:03:03;;;;;;;13.85;1.50;;;;;;;;;;5096600;28;20031;-77
2022/09/18 05:05:28;;;;;;;8.82;1.42;;;;;;;;;;5095051;28;20028;-77
2022/09/18 05:07:59;;;;;;;9.40;1.58;;;;;;;;;;5096462;28;20024;-77
2022/09/18 05:10:25;;;;;;;9.52;1.38;;;;;;;;;;5096511;28;20024;-77
2022/09/18 05:12:51;;;;;;;5.40;1.30;;;;;;;;;;5096154;28;20438;-77
2022/09/18 05:15:17;;;;;;;9.63;1.40;;;;;;;;;;5096686;28;20487;-77
2022/09/18 05:17:43;;;;;;;9.48;1.40;;;;;;;;;;5096263;28;20020;-77
2022/09/18 05:20:08;;;;;;;8.20;1.30;;;;;;;;;;5096246;28;20020;-77
2022/09/18 05:22:34;;;;;;;9.35;1.45;;;;;;;;;;5094658;28;20020;-77
2022/09/18 05:24:59;;;;;;;10.65;1.30;;;;;;;;;;5095042;28;20020;-77
2022/09/18 05:27:24;;;;;;;7.03;1.20;;;;;;;;;;5096205;28;20031;-77
2022/09/18 05:29:49;;;;;;;8.73;1.48;;;;;;;;;;5094619;28;20028;-77
2022/09/18 05:32:18;;;;;;;16.73;1.60;;;;;;;;;;5095836;28;20036;-77
2022/09/18 05:34:44;;;;;;;11.48;1.40;;;;;;;;;;5095755;28;20852;-77
2022/09/18 05:37:09;;;;;;;7.82;1.20;;;;;;;;;;5095723;28;20107;-76
2022/09/18 05:39:34;;;;;;;6.60;1.30;;;;;;;;;;5095630;28;20454;-76
2022/09/18 05:41:59;;;;;;;10.02;1.30;;;;;;;;;;5095565;28;20481;-77
2022/09/18 05:44:25;;;;;;;8.57;1.30;;;;;;;;;;5095518;28;20039;-77
2022/09/18 05:46:50;;;;;;;5.30;1.10;;;;;;;;;;5095489;28;20264;-76
2022/09/18 05:49:15;;;;;;;4.68;1.17;;;;;;;;;;5095514;28;20051;-77
2022/09/18 05:51:40;;;;;;;8.70;1.30;;;;;;;;;;5095334;28;20032;-77
2022/09/18 05:54:06;;;;;;;4.95;1.10;;;;;;;;;;5095090;28;20023;-76
2022/09/18 05:56:31;;;;;;;8.80;1.60;;;;;;;;;;5095522;28;20020;-77
2022/09/18 05:58:56;;;;;;;10.30;1.30;;;;;;;;;;5095142;28;20252;-76
2022/09/18 06:01:22;;;;;;;6.95;1.58;;;;;;;;;;5093976;28;20249;-77
2022/09/18 06:03:50;;;;;;;9.33;1.40;;;;;;;;;;5093783;28;20032;-77
2022/09/18 06:06:15;;;;;;;12.65;1.88;;;;;;;;;;5095091;28;20115;-76
2022/09/18 06:08:41;;;;;;;6.03;0.93;;;;;;;;;;5093744;28;20503;-77
2022/09/18 06:11:06;;;;;;;7.47;1.50;;;;;;;;;;5093703;28;20165;-77
2022/09/18 06:13:32;;;;;;;7.25;1.15;;;;;;;;;;5094975;28;20069;-78
2022/09/18 06:15:57;;;;;;;11.25;1.38;;;;;;;;;;5095249;28;20407;-76
2022/09/18 06:18:23;;;;;;;3.53;1.15;;;;;;;;;;5095042;28;20105;-77
2022/09/18 06:20:54;;;;;;;5.20;1.27;;;;;;;;;;5094851;28;20500;-77
2022/09/18 06:23:21;;;;;;;9.02;1.42;;;;;;;;;;5095049;28;20431;-77
2022/09/18 06:25:46;;;;;;;4.93;1.20;;;;;;;;;;5094774;28;20034;-77
2022/09/18 06:28:11;;;;;;;4.83;1.20;;;;;;;;;;5094624;28;20447;-76
2022/09/18 06:30:37;;;;;;;7.00;1.17;;;;;;;;;;5095109;28;20692;-76
2022/09/18 06:33:05;;;;;;;11.93;1.50;;;;;;;;;;5093293;28;20774;-76
2022/09/18 06:35:34;;;;;;;4.38;1.40;;;;;;;;;;5094781;28;20016;-76
2022/09/18 06:38:01;;;;;;;10.05;1.45;;;;;;;;;;5094550;28;20028;-76
2022/09/18 06:40:27;;;;;;;6.45;1.20;;;;;;;;;;5094679;28;20024;-76
2022/09/18 06:42:57;;;;;;;8.85;1.40;;;;;;;;;;5092926;28;20386;-76
2022/09/18 06:45:24;;;;;;;7.82;1.30;;;;;;;;;;5094419;28;20028;-76
2022/09/18 06:47:53;;;;;;;6.03;1.48;;;;;;;;;;5094202;28;20028;-77
2022/09/18 06:50:21;;;;;;;4.95;1.30;;;;;;;;;;5094730;28;20476;-77
2022/09/18 06:52:47;;;;;;;5.90;1.17;;;;;;;;;;5094936;28;20032;-77
2022/09/18 06:55:13;;;;;;;4.05;1.17;;;;;;;;;;5094832;28;20473;-77
2022/09/18 06:57:38;;;;;;;10.02;1.40;;;;;;;;;;5094649;28;20030;-78
2022/09/18 07:00:04;;;;;;;8.67;1.10;;;;;;;;;;5093763;28;20020;-77
2022/09/18 07:02:29;;;;;;;5.05;1.48;;;;;;;;;;5093588;28;20251;-78
2022/09/18 07:04:54;;;;;;;5.90;1.07;;;;;;;;;;5094189;28;20111;-77
2022/09/18 07:07:19;;;;;;;7.00;1.20;;;;;;;;;;5093054;28;20296;-77
2022/09/18 07:09:45;;;;;;;4.50;1.10;;;;;;;;;;5094714;28;20309;-77
2022/09/18 07:12:10;;;;;;;7.10;1.30;;;;;;;;;;5094648;28;20051;-77
2022/09/18 07:14:35;;;;;;;6.43;1.07;;;;;;;;;;5094941;28;20285;-77
2022/09/18 07:17:00;;;;;;;6.43;1.20;;;;;;;;;;5093214;28;20295;-78
2022/09/18 07:19:26;;;;;;;6.72;1.20;;;;;;;;;;5094985;28;20534;-78
2022/09/18 07:21:51;;;;;;;7.40;1.17;;;;;;;;;;5094256;28;20059;-78
2022/09/18 07:24:16;;;;;;;6.85;1.42;;;;;;;;;;5093975;28;20050;-77
2022/09/18 07:26:42;;;;;;;5.13;1.08;;;;;;;;;;5094325;28;20024;-78
2022/09/18 07:29:07;;;;;;;6.85;1.60;;;;;;;;;;5094487;28;20028;-78
2022/09/18 07:31:34;;;;;;;9.07;1.30;;;;;;;;;;5094488;28;20501;-78
2022/09/18 07:33:59;;;;;;;4.53;1.10;;;;;;;;;;5093291;28;20280;-78
2022/09/18 07:36:25;;;;;;;15.95;1.20;;;;;;;;;;5096516;28;20058;-78
2022/09/18 07:38:51;;;;;;;6.82;1.15;;;;;;;;;;5100196;28;20435;-78
2022/09/18 07:41:17;;;;;;;5.55;1.20;;;;;;;;;;5100996;28;20016;-78
2022/09/18 07:43:42;;;;;;;5.35;1.17;;;;;;;;;;5099828;28;20028;-78
2022/09/18 07:46:07;;;;;;;3.78;1.13;;;;;;;;;;5096129;28;20520;-77
2022/09/18 07:48:34;;;;;;;10.05;1.30;;;;;;;;;;5098522;28;20485;-77
2022/09/18 07:51:00;;;;;;;3.63;1.00;;;;;;;;;;5093416;28;20024;-78
2022/09/18 07:53:25;;;;;;;6.95;1.23;;;;;;;;;;5094531;28;20431;-78
2022/09/18 07:55:51;;;;;;;5.70;1.02;;;;;;;;;;5094878;28;20429;-78
2022/09/18 07:58:18;;;;;;;7.57;1.55;;;;;;;;;;5093633;28;20078;-78
2022/09/18 08:00:43;;;;;;;4.60;1.23;;;;;;;;;;5094217;28;20134;-77
2022/09/18 08:03:11;;;;;;;7.55;1.20;;;;;;;;;;5093912;28;20073;-77
2022/09/18 08:05:37;;;;;;;5.60;1.10;;;;;;;;;;5092301;28;20032;-77
2022/09/18 08:08:08;;;;;;;5.55;1.17;;;;;;;;;;5093858;28;20031;-78
2022/09/18 08:10:35;;;;;;;2.63;0.77;;;;;;;;;;5093972;28;20477;-78
2022/09/18 08:13:04;;;;;;;4.50;1.20;;;;;;;;;;5094567;28;20032;-77
2022/09/18 08:15:30;;;;;;;3.13;1.00;;;;;;;;;;5093734;28;20374;-77
2022/09/18 08:17:55;;;;;;;6.57;1.90;;;;;;;;;;5096839;28;20032;-78
2022/09/18 08:20:20;;;;;;;6.83;0.90;;;;;;;;;;5096935;28;20035;-77
2022/09/18 08:22:49;;;;;;;6.97;1.17;;;;;;;;;;5096460;28;20347;-78
2022/09/18 08:25:15;;;;;;;4.93;1.08;;;;;;;;;;5097431;28;20280;-78
2022/09/18 08:27:40;;;;;;;5.35;1.23;;;;;;;;;;5096480;28;20361;-78
2022/09/18 08:30:08;;;;;;;3.55;1.05;;;;;;;;;;5097484;28;20043;-77
2022/09/18 08:32:33;;;;;;;4.75;1.00;;;;;;;;;;5095638;28;20170;-77
2022/09/18 08:34:59;;;;;;;5.68;1.25;;;;;;;;;;5097044;28;20058;-77
2022/09/18 08:37:25;;;;;;;5.63;0.90;;;;;;;;;;5096851;28;20032;-78
2022/09/18 08:39:50;;;;;;;5.55;1.30;;;;;;;;;;5096708;28;20028;-77
2022/09/18 08:42:44;;;;;;;6.18;1.13;;;;;;;;;;5095512;28;20118;-77
2022/09/18 08:45:15;;;;;;;3.08;1.02;;;;;;;;;;5096683;28;20024;-78
2022/09/18 08:47:54;;;;;;;6.35;1.20;;;;;;;;;;5097260;28;20458;-77
2022/09/18 08:50:23;;;;;;;3.42;1.08;;;;;;;;;;5096957;28;20027;-77
2022/09/18 08:52:56;;;;;;;4.93;1.20;;;;;;;;;;5095338;28;20024;-78
2022/09/18 08:55:29;;;;;;;4.63;0.90;;;;;;;;;;5095280;28;20020;-78
2022/09/18 08:58:02;;;;;;;5.93;1.02;;;;;;;;;;5095254;28;20020;-77
2022/09/18 09:00:31;;;;;;;4.15;0.95;;;;;;;;;;5096760;28;20440;-77
2022/09/18 09:03:22;;;;;;;2.33;0.80;;;;;;;;;;5096387;28;20473;-77
2022/09/18 09:06:14;;;;;;;6.07;1.20;;;;;;;;;;5095009;28;20051;-77
2022/09/18 09:09:01;;;;;;;9.05;1.20;;;;;;;;;;5094982;28;20024;-77
2022/09/18 09:11:47;;;;;;;9.60;0.85;;;;;;;;;;5096495;28;20024;-77
2022/09/18 09:14:37;;;;;;;3.03;0.90;;;;;;;;;;5095675;28;20044;-77
2022/09/18 09:17:37;;;;;;;3.28;1.10;;;;;;;;;;5096222;28;20606;-77
2022/09/18 09:20:15;;;;;;;5.68;1.00;;;;;;;;;;5096261;28;20035;-77
2022/09/18 09:22:50;;;;;;;6.05;1.00;;;;;;;;;;5096905;28;20462;-77
2022/09/18 09:25:28;;;;;;;9.27;1.13;;;;;;;;;;5096012;28;20399;-77
2022/09/18 09:28:22;;;;;;;4.78;1.00;;;;;;;;;;5095958;28;20071;-77
2022/09/18 09:30:53;;;;;;;6.05;1.30;;;;;;;;;;5096215;28;20032;-77
2022/09/18 09:33:51;;;;;;;5.43;1.00;;;;;;;;;;5096260;28;20031;-77
2022/09/18 09:36:22;;;;;;;4.63;1.00;;;;;;;;;;5095417;28;20468;-78
2022/09/18 09:38:59;;;;;;;6.75;1.00;;;;;;;;;;5096095;28;20499;-78
2022/09/18 09:41:31;;;;;;;10.52;1.30;;;;;;;;;;5096053;28;20035;-78
2022/09/18 09:44:17;;;;;;;3.53;1.05;;;;;;;;;;5096255;28;20173;-78
2022/09/18 09:47:01;;;;;;;4.75;1.20;;;;;;;;;;5095150;28;20073;-78
2022/09/18 09:49:45;;;;;;;12.23;1.95;;;;;;;;;;5095181;28;20039;-77
2022/09/18 09:52:20;;;;;;;5.13;1.00;;;;;;;;;;5094850;28;20055;-77
2022/09/18 09:54:47;;;;;;;9.25;1.05;;;;;;;;;;5096893;28;20050;-77
2022/09/18 09:57:22;;;;;;;6.32;1.38;;;;;;;;;;5096482;28;20103;-78
2022/09/18 09:59:56;;;;;;;5.30;1.20;;;;;;;;;;5096583;28;20027;-77
2022/09/18 10:02:35;;;;;;;6.55;2.40;;;;;;;;;;5094765;28;20117;-78
2022/09/18 10:05:15;;;;;;;7.68;1.00;;;;;;;;;;5096003;28;20393;-78
2022/09/18 10:07:55;;;;;;;6.13;1.35;;;;;;;;;;5094404;28;20076;-76
2022/09/18 10:10:48;;;;;;;5.53;1.00;;;;;;;;;;5096041;28;20020;-78
2022/09/18 10:13:27;;;;;;;8.30;1.50;;;;;;;;;;5094509;28;20489;-77
2022/09/18 10:16:09;;;;;;;4.90;1.00;;;;;;;;;;5095820;28;20016;-78
2022/09/18 10:18:39;;;;;;;4.20;1.05;;;;;;;;;;5094812;28;20028;-78
2022/09/18 10:21:09;;;;;;;5.63;1.17;;;;;;;;;;5095079;28;20467;-76
2022/09/18 10:23:52;;;;;;;2.95;0.93;;;;;;;;;;5093631;28;20110;-76
2022/09/18 10:26:27;;;;;;;3.67;0.80;;;;;;;;;;5094679;28;20031;-77
2022/09/18 10:28:52;;;;;;;4.03;0.75;;;;;;;;;;5095041;28;20070;-76
2022/09/18 10:31:17;;;;;;;1.73;0.80;;;;;;;;;;5094970;28;20051;-78
2022/09/18 10:33:45;;;;;;;4.40;1.10;;;;;;;;;;5094887;28;20253;-78
2022/09/18 10:36:15;;;;;;;4.50;1.00;;;;;;;;;;5094856;28;20104;-77
2022/09/18 10:38:41;;;;;;;3.50;1.30;;;;;;;;;;5094733;28;20028;-77
2022/09/18 10:41:15;;;;;;;4.30;0.95;;;;;;;;;;5095154;28;20023;-77
2022/09/18 10:43:53;;;;;;;7.38;1.08;;;;;;;;;;5093229;28;20034;-77
2022/09/18 10:46:24;;;;;;;3.25;0.93;;;;;;;;;;5095019;28;20028;-77
2022/09/18 10:48:50;;;;;;;4.35;1.10;;;;;;;;;;5093428;28;20115;-76
2022/09/18 10:51:20;;;;;;;5.97;0.98;;;;;;;;;;5094512;28;20122;-77
2022/09/18 10:54:00;;;;;;;6.30;0.98;;;;;;;;;;5093261;28;20028;-77
2022/09/18 10:56:26;;;;;;;3.42;1.10;;;;;;;;;;5094775;28;20039;-78
2022/09/18 10:58:51;;;;;;;4.35;1.00;;;;;;;;;;5095295;28;20031;-78
2022/09/18 11:01:17;;;;;;;4.43;1.00;;;;;;;;;;5095347;28;20031;-78
2022/09/18 11:03:57;;;;;;;2.72;0.88;;;;;;;;;;5094727;28;20027;-78
2022/09/18 11:06:25;;;;;;;3.58;1.25;;;;;;;;;;5094389;28;20092;-78
2022/09/18 11:08:53;;;;;;;2.83;0.75;;;;;;;;;;5093530;28;20119;-78
2022/09/18 11:11:20;;;;;;;1.42;0.73;;;;;;;;;;5093459;28;20028;-77
2022/09/18 11:13:55;;;;;;;1.13;0.60;;;;;;;;;;5093692;28;20065;-78
2022/09/18 11:16:26;;;;;;;4.88;1.02;;;;;;;;;;5095574;28;20026;-78
2022/09/18 11:19:03;;;;;;;1.80;0.68;;;;;;;;;;5095233;28;20114;-78
2022/09/18 11:21:29;;;;;;;3.33;1.00;;;;;;;;;;5093807;28;20111;-77
2022/09/18 11:24:02;;;;;;;5.95;1.00;;;;;;;;;;5094447;28;20055;-77
2022/09/18 11:26:29;;;;;;;4.07;0.88;;;;;;;;;;5094186;28;20035;-78
2022/09/18 11:29:15;;;;;;;2.25;0.85;;;;;;;;;;5094747;28;20081;-78
2022/09/18 11:31:44;;;;;;;3.33;0.80;;;;;;;;;;5094560;28;20114;-78
2022/09/18 11:34:19;;;;;;;2.45;0.93;;;;;;;;;;5094873;28;20401;-77
2022/09/18 11:36:48;;;;;;;1.70;0.90;;;;;;;;;;5094403;28;20544;-77
2022/09/18 11:39:21;;;;;;;4.38;0.80;;;;;;;;;;5092788;28;20453;-76
2022/09/18 11:41:48;;;;;;;3.00;0.80;;;;;;;;;;5093701;28;20054;-78
2022/09/18 11:44:17;;;;;;;3.30;0.80;;;;;;;;;;5093571;28;20066;-78
2022/09/18 11:47:17;;;;;;;4.18;0.80;;;;;;;;;;5093827;28;20496;-78
2022/09/18 11:49:48;;;;;;;2.15;0.90;;;;;;;;;;5092977;28;20085;-78
2022/09/18 11:52:30;;;;;;;2.40;0.93;;;;;;;;;;5094279;28;20159;-76
2022/09/18 11:55:18;;;;;;;2.17;0.85;;;;;;;;;;5093292;28;20398;-78
2022/09/18 11:57:55;;;;;;;2.00;0.70;;;;;;;;;;5094825;28;20470;-78
2022/09/18 12:00:23;;;;;;;1.42;0.60;;;;;;;;;;5094776;28;20081;-78
2022/09/18 12:03:16;;;;;;;2.13;0.73;;;;;;;;;;5094358;28;20024;-78
2022/09/18 12:06:05;;;;;;;3.05;0.70;;;;;;;;;;5093481;28;20136;-77
2022/09/18 12:08:35;;;;;;;3.70;0.80;;;;;;;;;;5093632;28;20484;-77
2022/09/18 12:11:13;;;;;;;1.90;0.70;;;;;;;;;;5092572;28;20512;-79
2022/09/18 12:14:08;;;;;;;2.25;0.68;;;;;;;;;;5093673;28;20016;-77
2022/09/18 12:16:50;;;;;;;4.00;0.75;;;;;;;;;;5093876;28;20027;-76
2022/09/18 12:19:31;;;;;;;4.97;0.70;;;;;;;;;;5093387;28;20020;-78
2022/09/18 12:22:09;;;;;;;1.33;0.60;;;;;;;;;;5094100;28;20033;-78
2022/09/18 12:24:34;;;;;;;2.58;1.00;;;;;;;;;;5093943;28;20028;-78
2022/09/18 12:27:21;;;;;;;4.47;0.80;;;;;;;;;;5094127;28;20028;-78
2022/09/18 12:30:08;;;;;;;3.30;0.70;;;;;;;;;;5093329;28;20065;-78
2022/09/18 12:33:07;;;;;;;1.50;0.68;;;;;;;;;;5094549;28;20016;-78
2022/09/18 12:35:57;;;;;;;3.47;0.80;;;;;;;;;;5094339;28;20032;-78
2022/09/18 12:38:56;;;;;;;1.58;0.60;;;;;;;;;;5094460;28;20531;-78
2022/09/18 12:41:48;;;;;;;2.63;0.70;;;;;;;;;;5093789;28;20052;-78
2022/09/18 12:44:29;;;;;;;2.50;0.60;;;;;;;;;;5093459;28;20373;-78
2022/09/18 12:47:13;;;;;;;1.95;0.57;;;;;;;;;;5092560;28;20046;-78
2022/09/18 12:49:57;;;;;;;;;;;;;;;;;;5094398;28;20016;-78
2022/09/18 12:53:18;;;;;;;2.63;0.77;;;;;;;;;;5093985;28;19908;-78
2022/09/18 12:56:10;;;;;;;1.42;0.60;;;;;;;;;;5049238;28;20426;-78
2022/09/18 12:59:04;;;;;;;1.00;0.38;;;;;;;;;;5093738;28;20501;-78
2022/09/18 13:01:39;;;;;;;1.98;0.57;;;;;;;;;;5094006;28;20024;-78
2022/09/18 13:04:18;;;;;;;0.50;0.50;;;;;;;;;;5093730;28;20123;-78
2022/09/18 13:06:54;;;;;;;1.58;0.40;;;;;;;;;;5097534;28;20550;-78
2022/09/18 13:09:35;;;;;;;0.93;0.40;;;;;;;;;;5095955;28;20560;-77
2022/09/18 13:12:12;;;;;;;3.10;0.77;;;;;;;;;;5097571;28;20066;-77
2022/09/18 13:14:46;;;;;;;0.82;0.60;;;;;;;;;;5096009;28;20028;-78
2022/09/18 13:17:19;;;;;;;3.42;0.70;;;;;;;;;;5097474;28;20447;-78
2022/09/18 13:19:52;;;;;;;1.13;0.70;;;;;;;;;;5097148;28;20046;-78
2022/09/18 13:22:19;;;;;;;1.83;0.60;;;;;;;;;;5096876;28;20058;-78
2022/09/18 13:24:47;;;;;;;3.67;1.05;;;;;;;;;;5096921;28;20024;-78
2022/09/18 13:27:15;;;;;;;3.10;0.75;;;;;;;;;;5096905;28;20435;-78
2022/09/18 13:29:50;;;;;;;5.05;0.80;;;;;;;;;;5096694;28;20024;-77
2022/09/18 13:32:21;;;;;;;1.10;0.70;;;;;;;;;;5097263;28;20106;-78
2022/09/18 13:35:00;;;;;;;1.73;0.70;;;;;;;;;;5096692;28;20020;-78
2022/09/18 13:37:27;;;;;;;1.60;0.70;;;;;;;;;;5096430;28;20032;-78
2022/09/18 13:39:58;;;;;;;2.65;0.80;;;;;;;;;;5095233;28;20032;-78
2022/09/18 13:42:29;;;;;;;1.02;0.60;;;;;;;;;;5095108;28;20503;-77
2022/09/18 13:45:11;;;;;;;2.10;0.70;;;;;;;;;;5095049;28;20032;-78
2022/09/18 13:47:59;;;;;;;3.67;1.23;;;;;;;;;;5096962;28;20032;-77
2022/09/18 13:50:25;;;;;;;2.97;0.90;;;;;;;;;;5095482;28;20027;-78
2022/09/18 13:52:55;;;;;;;4.47;0.80;;;;;;;;;;5097141;28;20032;-77
2022/09/18 13:55:23;;;;;;;5.82;1.05;;;;;;;;;;5097203;28;20466;-78
2022/09/18 13:57:50;;;;;;;1.30;0.60;;;;;;;;;;5095225;28;20020;-78
2022/09/18 14:00:19;;;;;;;0.88;0.50;;;;;;;;;;5096324;28;20024;-78
2022/09/18 14:02:47;;;;;;;1.48;0.73;;;;;;;;;;5095449;28;20024;-78
2022/09/18 14:05:32;;;;;;;3.80;0.60;;;;;;;;;;5096343;28;20062;-78
2022/09/18 14:08:03;;;;;;;0.70;0.57;;;;;;;;;;5096078;28;20020;-78
2022/09/18 14:10:33;;;;;;;2.08;0.60;;;;;;;;;;5095060;28;20028;-78
2022/09/18 14:13:08;;;;;;;0.90;0.60;;;;;;;;;;5095969;28;20024;-78
2022/09/18 14:15:33;;;;;;;1.90;0.60;;;;;;;;;;5094311;28;20020;-78
2022/09/18 14:18:10;;;;;;;2.47;0.50;;;;;;;;;;5096543;28;20039;-78
2022/09/18 14:20:35;;;;;;;3.10;0.60;;;;;;;;;;5096269;28;20024;-78
2022/09/18 14:23:35;;;;;;;4.15;1.55;;;;;;;;;;5095580;28;20032;-77
2022/09/18 14:26:06;;;;;;;1.13;0.57;;;;;;;;;;5094172;28;20028;-78
2022/09/18 14:28:32;;;;;;;9.25;0.80;;;;;;;;;;5094039;28;20024;-76
2022/09/18 14:31:26;;;;;;;2.10;0.65;;;;;;;;;;5094368;28;20051;-77
2022/09/18 14:33:51;;;;;;;3.60;0.70;;;;;;;;;;5096351;28;20381;-78
2022/09/18 14:36:17;;;;;;;2.60;0.70;;;;;;;;;;5095833;28;20031;-78
2022/09/18 14:38:42;;;;;;;1.60;0.70;;;;;;;;;;5095482;28;20080;-78
2022/09/18 14:41:19;;;;;;;3.90;0.73;;;;;;;;;;5095399;28;20080;-79
2022/09/18 14:43:59;;;;;;;3.10;0.60;;;;;;;;;;5094555;28;20031;-77
2022/09/18 14:46:26;;;;;;;1.20;0.55;;;;;;;;;;5094024;28;20442;-78
2022/09/18 14:48:52;;;;;;;1.95;0.70;;;;;;;;;;5094970;28;20123;-78
2022/09/18 14:51:23;;;;;;;1.15;0.70;;;;;;;;;;5094516;28;20532;-77
2022/09/18 14:53:54;;;;;;;1.38;0.63;;;;;;;;;;5093063;28;20024;-77
2022/09/18 14:56:29;;;;;;;1.00;0.90;;;;;;;;;;5094120;28;20046;-77
2022/09/18 14:58:57;;;;;;;2.17;0.70;;;;;;;;;;5094269;28;20039;-77
2022/09/18 15:01:26;;;;;;;3.42;0.88;;;;;;;;;;5094074;28;20114;-77
2022/09/18 15:03:54;;;;;;;5.15;2.00;;;;;;;;;;5094139;28;20032;-77
2022/09/18 15:06:23;;;;;;;1.85;0.80;;;;;;;;;;5093873;28;20085;-77
2022/09/18 15:08:51;;;;;;;3.50;0.65;;;;;;;;;;5094282;28;20433;-77